createdAt,value
2023-05-25T00:02:20.385Z,47.04
2023-05-25T00:04:48.730Z,48.06
2023-05-25T00:07:16.395Z,48.39
2023-05-25T00:09:46.552Z,48.96
2023-05-25T00:12:15.029Z,51.12
2023-05-25T00:14:42.658Z,50.27
2023-05-25T00:17:11.353Z,52.57
2023-05-25T00:19:42.493Z,51.07
2023-05-25T00:22:10.477Z,49.81
2023-05-25T00:24:38.417Z,49.51
2023-05-25T00:27:08.034Z,51.63
2023-05-25T00:29:36.068Z,50.70
2023-05-25T00:32:04.232Z,49.34
2023-05-25T00:34:31.863Z,47.99
2023-05-25T00:36:59.519Z,47.13
2023-05-25T00:39:28.198Z,47.46
2023-05-25T00:41:55.856Z,47.41
2023-05-25T00:44:24.903Z,49.00
2023-05-25T00:46:53.180Z,49.63
2023-05-25T00:49:23.188Z,49.62
2023-05-25T00:51:51.123Z,50.47
2023-05-25T00:54:19.537Z,48.95
2023-05-25T00:56:48.032Z,48.05
2023-05-25T00:59:16.774Z,48.18
2023-05-25T01:01:45.795Z,48.93
2023-05-25T01:04:15.474Z,48.36
2023-05-25T01:06:44.352Z,47.72
2023-05-25T01:09:12.360Z,47.63
2023-05-25T01:11:40.380Z,47.45
2023-05-25T01:14:08.053Z,47.61
2023-05-25T01:16:35.965Z,48.17
2023-05-25T01:19:05.041Z,47.89
2023-05-25T01:21:37.885Z,49.56
2023-05-25T01:24:08.390Z,48.73
2023-05-25T01:26:37.711Z,49.00
2023-05-25T01:29:05.405Z,52.08
2023-05-25T01:31:33.139Z,53.65
2023-05-25T01:34:00.926Z,54.52
2023-05-25T01:36:28.568Z,51.23
2023-05-25T01:38:58.838Z,51.51
2023-05-25T01:41:27.075Z,52.34
2023-05-25T01:43:54.726Z,53.79
2023-05-25T01:46:24.816Z,56.04
2023-05-25T01:48:54.275Z,60.40
2023-05-25T01:51:23.321Z,57.52
2023-05-25T01:53:55.775Z,54.89
2023-05-25T01:56:24.831Z,53.85
2023-05-25T01:58:52.494Z,52.46
2023-05-25T02:01:20.235Z,52.41
2023-05-25T02:03:48.892Z,53.19
2023-05-25T02:06:16.937Z,52.42
2023-05-25T02:08:45.723Z,53.42
2023-05-25T02:11:13.987Z,55.51
2023-05-25T02:13:43.018Z,56.07
2023-05-25T02:16:10.853Z,55.37
2023-05-25T02:18:44.698Z,55.06
2023-05-25T02:21:12.678Z,53.38
2023-05-25T02:23:40.449Z,54.79
2023-05-25T02:26:08.134Z,55.08
2023-05-25T02:28:35.964Z,51.96
2023-05-25T02:31:05.017Z,50.75
2023-05-25T02:33:32.690Z,50.12
2023-05-25T02:36:00.630Z,50.13
2023-05-25T02:38:28.321Z,50.10
2023-05-25T02:40:56.036Z,50.89
2023-05-25T02:43:24.822Z,51.13
2023-05-25T02:45:52.478Z,50.98
2023-05-25T02:48:22.861Z,51.42
2023-05-25T02:50:50.823Z,51.16
2023-05-25T02:53:18.535Z,49.64
2023-05-25T02:55:46.373Z,51.23
2023-05-25T02:58:18.963Z,49.69
2023-05-25T03:01:05.524Z,49.94
2023-05-25T03:03:37.952Z,50.57
2023-05-25T03:06:05.749Z,50.04
2023-05-25T03:08:33.837Z,49.53
2023-05-25T03:11:01.465Z,49.25
2023-05-25T03:13:29.295Z,48.95
2023-05-25T03:15:58.022Z,49.08
2023-05-25T03:18:26.026Z,49.92
2023-05-25T03:20:55.460Z,50.13
2023-05-25T03:23:23.431Z,49.71
2023-05-25T03:25:54.125Z,49.64
2023-05-25T03:28:22.518Z,49.96
2023-05-25T03:30:50.400Z,50.68
2023-05-25T03:33:18.654Z,51.17
2023-05-25T03:35:49.339Z,50.95
2023-05-25T03:38:18.419Z,51.07
2023-05-25T03:40:46.973Z,51.78
2023-05-25T03:43:14.699Z,51.03
2023-05-25T03:45:45.413Z,54.01
2023-05-25T03:48:13.355Z,51.49
2023-05-25T03:50:41.879Z,50.74
2023-05-25T03:53:09.677Z,51.19
2023-05-25T03:55:38.787Z,52.85
2023-05-25T03:58:06.959Z,51.41
2023-05-25T04:00:34.650Z,53.22
2023-05-25T04:03:02.471Z,53.53
2023-05-25T04:05:30.295Z,54.87
2023-05-25T04:07:58.004Z,52.41
2023-05-25T04:10:25.720Z,54.94
2023-05-25T04:12:57.375Z,56.72
2023-05-25T04:15:25.886Z,57.34
2023-05-25T04:18:02.965Z,54.47
2023-05-25T04:20:30.987Z,53.19
2023-05-25T04:22:58.740Z,52.73
2023-05-25T04:25:29.244Z,52.99
2023-05-25T04:27:59.584Z,51.82
2023-05-25T04:30:56.913Z,51.32
2023-05-25T04:33:47.645Z,52.40
2023-05-25T04:36:21.366Z,50.61
2023-05-25T04:38:52.099Z,52.76
2023-05-25T04:41:19.945Z,52.32
2023-05-25T04:44:06.911Z,54.47
2023-05-25T04:46:39.546Z,56.12
2023-05-25T04:49:10.967Z,56.05
2023-05-25T04:51:38.685Z,55.62
2023-05-25T04:54:06.958Z,58.32
2023-05-25T04:56:34.722Z,53.25
2023-05-25T04:59:04.309Z,51.28
2023-05-25T05:01:34.337Z,50.19
2023-05-25T05:04:03.920Z,56.64
2023-05-25T05:06:32.921Z,55.15
2023-05-25T05:09:00.615Z,55.92
2023-05-25T05:11:29.244Z,54.35
2023-05-25T05:13:59.095Z,54.52
2023-05-25T05:16:31.697Z,53.47
2023-05-25T05:18:59.605Z,50.68
2023-05-25T05:21:27.343Z,56.42
2023-05-25T05:23:56.058Z,56.80
2023-05-25T05:26:24.102Z,51.94
2023-05-25T05:28:52.526Z,53.62
2023-05-25T05:31:20.779Z,49.01
2023-05-25T05:33:49.922Z,48.50
2023-05-25T05:36:18.346Z,48.83
2023-05-25T05:38:46.828Z,48.28
2023-05-25T05:41:14.600Z,53.52
2023-05-25T05:43:48.531Z,50.69
2023-05-25T05:46:16.357Z,53.26
2023-05-25T05:48:44.241Z,51.61
2023-05-25T05:51:13.232Z,47.36
2023-05-25T05:53:41.140Z,45.88
2023-05-25T05:56:14.110Z,44.87
2023-05-25T05:58:41.783Z,50.02
2023-05-25T06:01:09.519Z,49.82
2023-05-25T06:03:38.001Z,46.12
2023-05-25T06:06:06.046Z,49.89
2023-05-25T06:08:36.156Z,48.55
2023-05-25T06:11:03.854Z,47.82
2023-05-25T06:13:31.527Z,48.10
2023-05-25T06:15:59.192Z,55.04
2023-05-25T06:18:26.948Z,46.53
2023-05-25T06:20:55.589Z,48.11
2023-05-25T06:23:23.335Z,44.47
2023-05-25T06:25:53.191Z,44.31
2023-05-25T06:28:20.841Z,43.69
2023-05-25T06:30:50.535Z,44.66
2023-05-25T06:33:18.685Z,43.63
2023-05-25T06:35:46.854Z,42.88
2023-05-25T06:38:15.311Z,45.05
2023-05-25T06:40:43.002Z,42.01
2023-05-25T06:43:12.377Z,41.28
2023-05-25T06:45:53.509Z,41.11
2023-05-25T06:48:21.347Z,40.35
2023-05-25T06:50:49.077Z,40.19
2023-05-25T06:53:17.402Z,38.26
2023-05-25T06:55:45.365Z,37.04
2023-05-25T06:58:14.539Z,37.42
2023-05-25T07:00:42.969Z,38.98
2023-05-25T07:03:11.893Z,38.66
2023-05-25T07:05:39.612Z,40.25
2023-05-25T07:08:07.290Z,42.79
2023-05-25T07:10:34.941Z,40.17
2023-05-25T07:13:02.613Z,40.29
2023-05-25T07:15:31.680Z,39.01
2023-05-25T07:17:59.403Z,39.50
2023-05-25T07:20:27.448Z,38.67
2023-05-25T07:22:55.217Z,38.55
2023-05-25T07:25:22.912Z,37.05
2023-05-25T07:27:50.614Z,38.39
2023-05-25T07:30:18.311Z,36.89
2023-05-25T07:32:47.303Z,36.35
2023-05-25T07:35:15.078Z,35.41
2023-05-25T07:37:42.733Z,36.50
2023-05-25T07:40:10.905Z,35.99
2023-05-25T07:42:38.538Z,36.10
2023-05-25T07:45:06.730Z,34.00
2023-05-25T07:47:34.377Z,33.38
2023-05-25T07:50:03.717Z,33.67
2023-05-25T07:52:31.326Z,34.55
2023-05-25T07:54:59.015Z,35.68
2023-05-25T07:57:26.863Z,34.74
2023-05-25T07:59:54.542Z,34.38
2023-05-25T08:02:22.218Z,34.16
2023-05-25T08:04:50.162Z,33.15
2023-05-25T08:07:19.663Z,31.60
2023-05-25T08:09:47.348Z,32.26
2023-05-25T08:12:34.351Z,31.01
2023-05-25T08:15:02.599Z,29.32
2023-05-25T08:17:30.384Z,28.33
2023-05-25T08:19:58.103Z,28.39
2023-05-25T08:22:27.427Z,28.35
2023-05-25T08:24:55.062Z,30.22
2023-05-25T08:27:22.716Z,30.10
2023-05-25T08:29:50.493Z,29.23
2023-05-25T08:32:18.139Z,30.86
2023-05-25T08:34:45.828Z,31.48
2023-05-25T08:37:13.483Z,31.29
2023-05-25T08:39:42.572Z,31.31
2023-05-25T08:42:10.247Z,31.54
2023-05-25T08:44:38.123Z,30.14
2023-05-25T08:47:06.759Z,32.49
2023-05-25T08:49:34.775Z,30.63
2023-05-25T08:52:02.545Z,30.43
2023-05-25T08:54:30.912Z,32.45
2023-05-25T08:57:02.619Z,33.03
2023-05-25T08:59:32.617Z,32.49
2023-05-25T09:02:03.653Z,32.00
2023-05-25T09:04:31.411Z,32.16
2023-05-25T09:07:09.501Z,33.73
2023-05-25T09:09:39.000Z,32.63
2023-05-25T09:12:08.879Z,30.96
2023-05-25T09:14:37.654Z,31.81
2023-05-25T09:17:05.675Z,28.89
2023-05-25T09:19:33.336Z,28.56
2023-05-25T09:24:32.407Z,28.45
2023-05-25T09:27:00.243Z,29.39
2023-05-25T09:29:29.335Z,27.60
2023-05-25T09:31:57.301Z,29.86
2023-05-25T09:34:25.099Z,30.32
2023-05-25T09:36:52.798Z,29.76
2023-05-25T09:39:20.772Z,28.52
2023-05-25T09:41:48.498Z,27.92
2023-05-25T09:44:16.105Z,29.68
2023-05-25T09:46:45.246Z,29.63
2023-05-25T09:49:12.874Z,28.43
2023-05-25T09:51:40.566Z,29.42
2023-05-25T09:54:10.102Z,28.20
2023-05-25T09:56:37.758Z,29.82
2023-05-25T09:59:05.592Z,32.16
2023-05-25T10:01:33.498Z,31.56
2023-05-25T10:04:04.659Z,31.10
2023-05-25T10:06:33.170Z,33.82
2023-05-25T10:09:01.378Z,31.91
2023-05-25T10:11:29.421Z,31.64
2023-05-25T10:13:58.993Z,33.32
2023-05-25T10:16:29.322Z,32.77
2023-05-25T10:18:59.763Z,31.61
2023-05-25T10:21:29.820Z,30.65
2023-05-25T10:24:01.680Z,32.35
2023-05-25T10:26:29.433Z,31.32
2023-05-25T10:29:00.347Z,34.05
2023-05-25T10:31:29.776Z,30.93
2023-05-25T10:33:57.813Z,31.32
2023-05-25T10:36:25.582Z,32.03
2023-05-25T10:38:54.647Z,31.38
2023-05-25T10:41:23.001Z,31.06
2023-05-25T10:43:50.772Z,31.98
2023-05-25T10:46:19.152Z,29.91
2023-05-25T10:48:47.228Z,29.23
2023-05-25T10:51:15.237Z,28.66
2023-05-25T10:53:44.657Z,28.52
2023-05-25T10:56:14.196Z,29.03
2023-05-25T10:58:42.732Z,28.76
2023-05-25T11:01:10.746Z,28.61
2023-05-25T11:03:57.540Z,28.81
2023-05-25T11:06:45.694Z,28.49
2023-05-25T11:09:25.910Z,29.58
2023-05-25T11:12:03.679Z,28.59
2023-05-25T11:14:31.812Z,28.76
2023-05-25T11:17:06.320Z,29.92
2023-05-25T11:19:39.852Z,28.87
2023-05-25T11:22:13.904Z,29.56
2023-05-25T11:24:42.946Z,29.43
2023-05-25T11:27:10.593Z,28.27
2023-05-25T11:29:38.361Z,28.64
2023-05-25T11:32:06.325Z,27.67
2023-05-25T11:34:34.007Z,25.25
2023-05-25T11:37:03.664Z,24.61
2023-05-25T11:39:31.904Z,29.27
2023-05-25T11:42:03.913Z,28.15
2023-05-25T11:44:33.588Z,29.19
2023-05-25T11:47:02.859Z,26.29
2023-05-25T11:49:30.565Z,26.24
2023-05-25T11:51:58.398Z,27.24
2023-05-25T11:54:26.398Z,26.89
2023-05-25T11:56:56.624Z,25.22
2023-05-25T11:59:27.221Z,24.76
2023-05-25T12:01:56.827Z,25.18
2023-05-25T12:04:24.732Z,25.54
2023-05-25T12:06:52.429Z,26.70
2023-05-25T12:09:20.578Z,27.16
2023-05-25T12:11:48.332Z,27.13
2023-05-25T12:14:16.067Z,23.97
2023-05-25T12:16:45.155Z,24.54
2023-05-25T12:19:12.869Z,25.05
2023-05-25T12:21:40.696Z,24.51
2023-05-25T12:24:08.450Z,24.12
2023-05-25T12:26:36.217Z,22.38
2023-05-25T12:29:04.580Z,20.43
2023-05-25T12:31:32.850Z,19.15
2023-05-25T12:34:05.630Z,19.91
2023-05-25T12:36:43.500Z,18.58
2023-05-25T12:39:11.629Z,18.47
2023-05-25T12:41:50.685Z,21.82
2023-05-25T12:44:24.018Z,24.82
2023-05-25T12:46:52.258Z,24.31
2023-05-25T12:49:28.475Z,21.04
2023-05-25T12:51:56.329Z,19.82
2023-05-25T12:54:44.003Z,18.76
2023-05-25T12:57:12.995Z,22.09
2023-05-25T12:59:41.194Z,24.21
2023-05-25T13:02:09.177Z,27.72
2023-05-25T13:04:38.561Z,29.15
2023-05-25T13:07:06.533Z,27.16
2023-05-25T13:09:34.236Z,24.92
2023-05-25T13:12:02.853Z,27.15
2023-05-25T13:14:30.720Z,27.17
2023-05-25T13:16:58.521Z,26.66
2023-05-25T13:19:26.883Z,23.08
2023-05-25T13:21:56.718Z,20.07
2023-05-25T13:24:24.665Z,18.73
2023-05-25T13:26:52.402Z,18.78
2023-05-25T13:29:20.118Z,19.02
2023-05-25T13:31:48.248Z,17.85
2023-05-25T13:34:15.968Z,17.91
2023-05-25T13:36:43.621Z,18.40
2023-05-25T13:39:13.763Z,16.98
2023-05-25T13:41:42.010Z,15.66
2023-05-25T13:44:11.137Z,15.74
2023-05-25T13:46:39.058Z,17.56
2023-05-25T13:49:06.926Z,19.42
2023-05-25T13:51:35.682Z,20.06
2023-05-25T13:54:03.618Z,19.14
2023-05-25T13:56:32.671Z,18.41
2023-05-25T13:59:00.482Z,16.72
2023-05-25T14:01:28.770Z,17.50
2023-05-25T14:03:57.803Z,19.48
2023-05-25T14:06:28.300Z,20.99
2023-05-25T14:08:55.942Z,19.44
2023-05-25T14:11:28.614Z,18.87
2023-05-25T14:13:57.949Z,18.56
2023-05-25T14:16:25.823Z,17.43
2023-05-25T14:18:53.583Z,20.23
2023-05-25T14:21:21.271Z,23.00
2023-05-25T14:23:49.013Z,22.27
2023-05-25T14:26:16.664Z,22.22
2023-05-25T14:28:44.355Z,22.41
2023-05-25T14:31:13.419Z,21.65
2023-05-25T14:33:43.002Z,20.19
2023-05-25T14:36:11.022Z,20.58
2023-05-25T14:38:38.728Z,21.07
2023-05-25T14:41:06.365Z,18.03
2023-05-25T14:43:34.948Z,19.56
2023-05-25T14:46:02.591Z,19.72
2023-05-25T14:48:31.617Z,21.36
2023-05-25T14:51:00.510Z,20.02
2023-05-25T14:53:28.155Z,20.75
2023-05-25T14:55:55.830Z,19.11
2023-05-25T14:58:23.522Z,18.71
2023-05-25T15:00:52.167Z,19.13
2023-05-25T15:03:20.168Z,20.89
2023-05-25T15:05:49.356Z,19.42
2023-05-25T15:08:17.094Z,18.54
2023-05-25T15:10:44.798Z,18.20
2023-05-25T15:13:13.452Z,17.75
2023-05-25T15:15:41.780Z,16.83
2023-05-25T15:18:09.744Z,16.88
2023-05-25T15:20:37.450Z,17.74
2023-05-25T15:23:06.565Z,18.73
2023-05-25T15:25:35.799Z,20.34
2023-05-25T15:28:03.995Z,19.09
2023-05-25T15:30:33.230Z,18.77
2023-05-25T15:33:00.993Z,18.90
2023-05-25T15:35:31.459Z,19.31
2023-05-25T15:37:59.101Z,19.12
2023-05-25T15:40:28.123Z,19.51
2023-05-25T15:42:56.171Z,18.17
2023-05-25T15:45:24.954Z,21.18
2023-05-25T15:47:52.775Z,23.74
2023-05-25T15:50:20.566Z,23.90
2023-05-25T15:52:48.318Z,23.85
2023-05-25T15:55:16.018Z,25.12
2023-05-25T15:57:45.049Z,24.49
2023-05-25T16:00:13.461Z,26.56
2023-05-25T16:02:41.158Z,26.38
2023-05-25T16:05:09.705Z,27.65
2023-05-25T16:07:37.376Z,27.85
2023-05-25T16:10:05.438Z,26.55
2023-05-25T16:12:33.200Z,25.11
2023-05-25T16:15:02.180Z,24.16
2023-05-25T16:17:29.867Z,24.44
2023-05-25T16:19:57.677Z,24.42
2023-05-25T16:22:25.456Z,25.33
2023-05-25T16:24:53.083Z,23.50
2023-05-25T16:27:20.797Z,22.77
2023-05-25T16:29:48.527Z,23.82
2023-05-25T16:32:17.595Z,23.84
2023-05-25T16:34:45.264Z,23.61
2023-05-25T16:37:12.985Z,21.96
2023-05-25T16:39:40.684Z,20.64
2023-05-25T16:42:08.466Z,18.93
2023-05-25T16:44:36.358Z,19.16
2023-05-25T16:47:04.043Z,18.98
2023-05-25T16:49:33.051Z,21.66
2023-05-25T16:52:02.561Z,20.15
2023-05-25T16:54:30.838Z,20.08
2023-05-25T16:56:58.551Z,19.43
2023-05-25T16:59:26.216Z,20.88
2023-05-25T17:01:53.976Z,19.24
2023-05-25T17:04:21.647Z,18.81
2023-05-25T17:06:50.686Z,18.32
2023-05-25T17:09:18.345Z,20.22
2023-05-25T17:11:46.030Z,20.84
2023-05-25T17:14:13.653Z,19.88
2023-05-25T17:16:41.545Z,21.29
2023-05-25T17:19:10.697Z,20.61
2023-05-25T17:21:38.463Z,20.51
2023-05-25T17:24:07.843Z,19.28
2023-05-25T17:26:35.521Z,21.27
2023-05-25T17:29:03.197Z,21.51
2023-05-25T17:31:30.895Z,23.97
2023-05-25T17:33:58.563Z,23.84
2023-05-25T17:36:26.414Z,23.71
2023-05-25T17:38:54.147Z,22.81
2023-05-25T17:41:23.599Z,23.68
2023-05-25T17:43:51.261Z,25.61
2023-05-25T17:46:19.013Z,27.05
2023-05-25T17:48:46.669Z,26.41
2023-05-25T17:51:14.564Z,25.72
2023-05-25T17:53:42.200Z,24.02
2023-05-25T17:56:09.855Z,25.73
2023-05-25T17:58:39.021Z,25.78
2023-05-25T18:01:06.813Z,26.83
2023-05-25T18:03:34.643Z,26.49
2023-05-25T18:06:02.310Z,26.69
2023-05-25T18:08:29.979Z,27.03
2023-05-25T18:10:57.699Z,28.79
2023-05-25T18:13:25.385Z,26.94
2023-05-25T18:15:54.575Z,25.68
2023-05-25T18:18:24.694Z,27.86
2023-05-25T18:20:52.432Z,27.44
2023-05-25T18:23:20.100Z,28.22
2023-05-25T18:25:47.777Z,29.86
2023-05-25T18:28:18.228Z,30.04
2023-05-25T18:30:46.138Z,30.82
2023-05-25T18:33:16.337Z,29.94
2023-05-25T18:35:44.444Z,31.23
2023-05-25T18:38:12.279Z,30.55
2023-05-25T18:40:39.936Z,32.58
2023-05-25T18:43:07.850Z,34.85
2023-05-25T18:45:35.590Z,33.34
2023-05-25T18:48:07.367Z,33.66
2023-05-25T18:50:37.604Z,32.87
2023-05-25T18:53:09.931Z,33.79
2023-05-25T18:55:37.624Z,33.45
2023-05-25T18:58:05.350Z,35.27
2023-05-25T19:00:33.747Z,35.29
2023-05-25T19:03:01.606Z,35.65
2023-05-25T19:05:29.304Z,36.05
2023-05-25T19:08:00.011Z,35.22
2023-05-25T19:10:27.942Z,35.78
2023-05-25T19:12:55.618Z,35.24
2023-05-25T19:15:23.448Z,34.18
2023-05-25T19:17:51.354Z,34.97
2023-05-25T19:20:19.106Z,35.41
2023-05-25T19:22:46.840Z,37.03
2023-05-25T19:25:16.084Z,35.10
2023-05-25T19:27:43.819Z,35.82
2023-05-25T19:30:11.835Z,35.24
2023-05-25T19:32:39.436Z,36.61
2023-05-25T19:35:07.356Z,36.50
2023-05-25T19:37:37.062Z,36.14
2023-05-25T19:40:04.970Z,37.08
2023-05-25T19:42:34.014Z,36.28
2023-05-25T19:45:01.755Z,36.25
2023-05-25T19:47:29.505Z,35.77
2023-05-25T19:49:57.133Z,35.30
2023-05-25T19:52:24.777Z,36.06
2023-05-25T19:54:52.446Z,35.90
2023-05-25T19:57:20.168Z,36.29
2023-05-25T19:59:50.036Z,37.03
2023-05-25T20:02:17.748Z,37.30
2023-05-25T20:04:45.463Z,36.31
2023-05-25T20:07:13.145Z,37.02
2023-05-25T20:09:41.380Z,36.46
2023-05-25T20:12:09.407Z,36.41
2023-05-25T20:14:37.082Z,36.70
2023-05-25T20:17:06.274Z,38.23
2023-05-25T20:19:33.933Z,37.90
2023-05-25T20:22:02.479Z,38.69
2023-05-25T20:24:30.113Z,39.01
2023-05-25T20:26:57.804Z,38.93
2023-05-25T20:29:25.702Z,37.60
2023-05-25T20:31:53.468Z,38.62
2023-05-25T20:34:22.530Z,38.05
2023-05-25T20:36:50.143Z,38.58
2023-05-25T20:39:17.766Z,37.75
2023-05-25T20:41:45.391Z,38.36
2023-05-25T20:44:14.076Z,38.57
2023-05-25T20:46:41.800Z,38.50
2023-05-25T20:49:11.168Z,37.56
2023-05-25T20:51:44.493Z,37.41
2023-05-25T20:54:12.155Z,38.17
2023-05-25T20:56:39.929Z,37.93
2023-05-25T20:59:07.522Z,37.58
2023-05-25T21:01:35.270Z,37.84
2023-05-25T21:04:03.016Z,37.29
2023-05-25T21:06:30.692Z,37.38
2023-05-25T21:08:59.706Z,37.67
2023-05-25T21:11:27.387Z,37.49
2023-05-25T21:13:55.014Z,37.59
2023-05-25T21:16:22.702Z,37.46
2023-05-25T21:18:50.395Z,37.61
2023-05-25T21:21:18.088Z,38.13
2023-05-25T21:23:45.702Z,38.17
2023-05-25T21:26:14.699Z,38.22
2023-05-25T21:28:42.299Z,37.94
2023-05-25T21:31:10.014Z,37.89
2023-05-25T21:33:37.703Z,38.66
2023-05-25T21:36:05.394Z,38.71
2023-05-25T21:38:32.991Z,38.87
2023-05-25T21:41:00.642Z,39.12
2023-05-25T21:43:29.619Z,39.19
2023-05-25T21:45:57.329Z,39.49
2023-05-25T21:48:25.025Z,39.40
2023-05-25T21:50:52.715Z,39.46
2023-05-25T21:53:20.328Z,39.51
2023-05-25T21:55:48.064Z,39.27
2023-05-25T21:58:17.464Z,39.51
2023-05-25T22:00:46.498Z,39.80
2023-05-25T22:03:14.338Z,39.61
2023-05-25T22:05:42.219Z,39.79
2023-05-25T22:08:10.013Z,40.41
2023-05-25T22:10:37.740Z,40.39
2023-05-25T22:13:06.037Z,40.66
2023-05-25T22:15:33.917Z,40.30
2023-05-25T22:18:03.081Z,40.14
2023-05-25T22:20:30.772Z,39.96
2023-05-25T22:22:58.447Z,38.99
2023-05-25T22:25:26.153Z,38.89
2023-05-25T22:27:53.746Z,39.14
2023-05-25T22:30:21.393Z,39.34
2023-05-25T22:32:49.088Z,38.74
2023-05-25T22:35:18.164Z,38.32
2023-05-25T22:37:45.771Z,39.26
2023-05-25T22:40:13.795Z,38.57
2023-05-25T22:42:41.427Z,37.97
2023-05-25T22:45:09.566Z,37.36
2023-05-25T22:47:37.411Z,38.10
2023-05-25T22:50:05.206Z,37.73
2023-05-25T22:52:34.257Z,38.09
2023-05-25T22:55:01.885Z,38.51
2023-05-25T22:57:29.550Z,38.55
2023-05-25T22:59:57.144Z,38.53
2023-05-25T23:02:25.573Z,38.53
2023-05-25T23:04:53.368Z,39.93
2023-05-25T23:07:21.022Z,39.83
2023-05-25T23:09:49.950Z,39.19
2023-05-25T23:12:17.600Z,38.55
2023-05-25T23:14:45.471Z,39.28
2023-05-25T23:17:13.103Z,39.21
2023-05-25T23:19:40.767Z,38.63
2023-05-25T23:22:08.376Z,39.25
2023-05-25T23:24:36.463Z,38.94
2023-05-25T23:27:06.752Z,39.99
2023-05-25T23:29:34.434Z,41.31
2023-05-25T23:32:02.103Z,41.97
2023-05-25T23:34:29.731Z,42.55
2023-05-25T23:36:58.214Z,41.05
2023-05-25T23:39:26.076Z,40.44
2023-05-25T23:41:53.720Z,40.70
2023-05-25T23:44:22.750Z,41.10
2023-05-25T23:46:50.404Z,40.62
2023-05-25T23:49:18.112Z,40.77
2023-05-25T23:51:45.766Z,40.15
2023-05-25T23:54:13.415Z,40.36
2023-05-25T23:56:41.060Z,40.19
2023-05-25T23:59:08.746Z,40.06
